Time;durP1;ratioP1;P1;durP2;ratioP2;P2;SDS_P1;SDS_P2;PMS_P1;PMS_P2;Temp;Humidity;BMP_temperature;BMP_pressure;BME280_temperature;BME280_humidity;BME280_pressure;Samples;Min_cycle;Max_cycle;Signal;HPM_P1;HPM_P2
2023/12/27 00:01:37;;;;;;;23.88;22.08;;;;;;;9.82;100.00;101134.56;4967482;28;20055;-57
2023/12/27 00:04:04;;;;;;;25.77;23.77;;;;;;;9.54;100.00;101133.72;4958799;28;20077;-57
2023/12/27 00:06:30;;;;;;;25.52;23.52;;;;;;;9.37;100.00;101133.94;4959625;28;20063;-57
2023/12/27 00:08:58;;;;;;;24.20;22.25;;;;;;;9.23;100.00;101144.56;4956829;28;20058;-57
2023/12/27 00:11:25;;;;;;;24.73;22.73;;;;;;;9.15;100.00;101138.38;4962261;28;20105;-57
2023/12/27 00:13:53;;;;;;;24.63;22.63;;;;;;;9.12;100.00;101146.72;4957184;28;20051;-57
2023/12/27 00:16:21;;;;;;;24.95;22.95;;;;;;;9.01;100.00;101147.16;4962615;28;20440;-57
2023/12/27 00:18:48;;;;;;;25.70;23.70;;;;;;;9.12;100.00;101153.84;4960488;28;20513;-57
2023/12/27 00:21:15;;;;;;;44.50;22.80;;;;;;;9.02;100.00;101150.66;4959065;28;20517;-57
2023/12/27 00:23:42;;;;;;;26.45;24.35;;;;;;;8.77;100.00;101156.22;4961323;28;20520;-57
2023/12/27 00:26:09;;;;;;;25.35;23.35;;;;;;;8.80;100.00;101157.69;4962127;28;20058;-57
2023/12/27 00:28:36;;;;;;;28.40;26.30;;;;;;;8.70;100.00;101163.28;4959558;28;20054;-57
2023/12/27 00:31:04;;;;;;;24.92;22.90;;;;;;;8.51;100.00;101155.88;4962473;28;20059;-57
2023/12/27 00:33:31;;;;;;;24.52;22.52;;;;;;;8.52;100.00;101165.47;4955604;28;20051;-57
2023/12/27 00:35:58;;;;;;;25.83;23.73;;;;;;;8.87;100.00;101175.34;4959819;28;20091;-57
2023/12/27 00:38:25;;;;;;;28.10;25.52;;;;;;;8.67;100.00;101175.06;4958055;28;20062;-57
2023/12/27 00:40:52;;;;;;;27.00;24.90;;;;;;;8.57;100.00;101163.91;4956233;28;20444;-57
2023/12/27 00:43:21;;;;;;;23.52;21.60;;;;;;;8.68;100.00;101175.88;4959835;28;20057;-57
2023/12/27 00:45:48;;;;;;;23.42;21.52;;;;;;;8.73;100.00;101175.34;4959211;28;20523;-57
2023/12/27 00:48:17;;;;;;;25.73;23.73;;;;;;;8.64;100.00;101190.50;4958711;28;20058;-57
2023/12/27 00:50:43;;;;;;;26.98;24.98;;;;;;;8.67;100.00;101188.28;4957735;28;20066;-57
2023/12/27 00:53:10;;;;;;;25.95;23.65;;;;;;;8.62;100.00;101195.13;4955220;28;20062;-57
2023/12/27 00:55:37;;;;;;;25.30;23.40;;;;;;;8.54;100.00;101197.88;4962764;28;20043;-58
2023/12/27 00:58:04;;;;;;;25.60;23.70;;;;;;;8.76;100.00;101199.63;4956508;28;20047;-57
2023/12/27 01:00:31;;;;;;;29.95;27.60;;;;;;;8.73;100.00;101191.22;4965664;28;20401;-57
2023/12/27 01:02:58;;;;;;;30.02;27.83;;;;;;;8.79;100.00;101204.56;4959043;28;20066;-57
2023/12/27 01:05:26;;;;;;;26.08;24.08;;;;;;;8.90;100.00;101208.59;4959936;28;20062;-57
2023/12/27 01:07:53;;;;;;;25.13;23.02;;;;;;;9.17;100.00;101202.63;4954157;28;20058;-57
2023/12/27 01:10:20;;;;;;;26.42;24.35;;;;;;;8.89;100.00;101201.63;4961599;28;20066;-57
2023/12/27 01:12:48;;;;;;;25.77;23.77;;;;;;;9.11;100.00;101207.84;4957064;28;20540;-57
2023/12/27 01:15:15;;;;;;;31.25;27.98;;;;;;;9.10;100.00;101204.34;4959847;28;20057;-57
2023/12/27 01:17:42;;;;;;;27.50;23.50;;;;;;;9.21;100.00;101196.97;4958021;28;20087;-57
2023/12/27 01:20:10;;;;;;;26.25;24.15;;;;;;;9.32;100.00;101199.97;4958614;28;20529;-57
2023/12/27 01:22:38;;;;;;;31.38;29.08;;;;;;;9.21;100.00;101196.97;4957458;28;20445;-57
2023/12/27 01:25:06;;;;;;;31.50;29.20;;;;;;;9.32;100.00;101191.16;4966801;28;20054;-57
2023/12/27 01:27:33;;;;;;;26.17;24.17;;;;;;;9.12;100.00;101194.41;4961858;28;20055;-56
2023/12/27 01:29:59;;;;;;;25.35;23.45;;;;;;;9.28;100.00;101193.38;4962875;28;20465;-57
2023/12/27 01:32:26;;;;;;;26.80;24.77;;;;;;;9.24;100.00;101199.25;4961303;28;20050;-57
2023/12/27 01:34:53;;;;;;;27.90;25.77;;;;;;;9.13;100.00;101201.34;4961445;28;20511;-57
2023/12/27 01:37:20;;;;;;;27.58;25.38;;;;;;;9.45;100.00;101206.44;4964635;28;20246;-57
2023/12/27 01:39:48;;;;;;;29.88;27.15;;;;;;;9.37;100.00;101207.34;4955820;28;20058;-57
2023/12/27 01:42:15;;;;;;;27.73;25.52;;;;;;;9.31;100.00;101210.75;4968022;28;20058;-57
2023/12/27 01:44:42;;;;;;;27.17;24.67;;;;;;;9.45;100.00;101214.38;4960736;28;20059;-58
2023/12/27 01:47:09;;;;;;;26.92;24.92;;;;;;;9.67;100.00;101228.50;4961473;28;20063;-57
2023/12/27 01:49:36;;;;;;;24.30;22.40;;;;;;;9.81;100.00;101231.09;4960256;28;20059;-57
2023/12/27 01:52:03;;;;;;;29.58;24.27;;;;;;;9.91;100.00;101222.84;4959630;28;20051;-57
2023/12/27 01:54:30;;;;;;;28.52;26.50;;;;;;;9.93;100.00;101230.63;4961828;28;20085;-57
2023/12/27 01:56:58;;;;;;;27.08;24.98;;;;;;;9.98;100.00;101230.84;4965589;28;20065;-57
2023/12/27 01:59:25;;;;;;;25.52;23.52;;;;;;;9.95;100.00;101245.31;4961512;28;20050;-57
2023/12/27 02:01:53;;;;;;;23.83;21.83;;;;;;;10.12;100.00;101245.09;4964768;28;20079;-57
2023/12/27 02:04:20;;;;;;;25.73;23.83;;;;;;;10.06;100.00;101251.97;4960621;28;20051;-57
2023/12/27 02:06:47;;;;;;;28.02;25.92;;;;;;;9.98;100.00;101241.47;4962831;28;20054;-57
2023/12/27 02:09:15;;;;;;;27.25;25.25;;;;;;;10.08;100.00;101231.38;4960019;28;20062;-57
2023/12/27 02:11:43;;;;;;;28.80;26.70;;;;;;;9.79;100.00;101232.31;4957412;28;20421;-57
2023/12/27 02:14:11;;;;;;;25.63;23.70;;;;;;;9.88;100.00;101231.16;4962039;28;20473;-57
2023/12/27 02:16:38;;;;;;;25.55;23.67;;;;;;;9.93;100.00;101238.56;4959885;28;20055;-57
2023/12/27 02:19:07;;;;;;;23.75;21.95;;;;;;;9.97;100.00;101238.00;4965031;28;20472;-57
2023/12/27 02:21:34;;;;;;;27.85;25.85;;;;;;;10.04;100.00;101241.53;4956831;28;20058;-57
2023/12/27 02:24:04;;;;;;;28.48;26.20;;;;;;;9.91;100.00;101228.13;4965752;28;20050;-57
2023/12/27 02:26:32;;;;;;;26.40;24.40;;;;;;;9.90;100.00;101231.81;4961567;28;20042;-58
2023/12/27 02:28:59;;;;;;;28.42;26.42;;;;;;;9.91;100.00;101230.78;4955665;28;20057;-57
2023/12/27 02:31:26;;;;;;;24.73;22.83;;;;;;;9.89;100.00;101237.28;4962388;28;20051;-56
2023/12/27 02:33:53;;;;;;;23.85;22.05;;;;;;;9.92;100.00;101251.00;4956264;28;20078;-57
2023/12/27 02:36:20;;;;;;;22.73;20.83;;;;;;;9.86;100.00;101246.44;4967620;28;20058;-57
2023/12/27 02:38:47;;;;;;;24.48;22.58;;;;;;;9.95;100.00;101244.50;4959127;28;20070;-57
2023/12/27 02:41:14;;;;;;;24.58;22.88;;;;;;;9.96;100.00;101241.66;4960950;28;20062;-57
2023/12/27 02:43:42;;;;;;;24.73;22.92;;;;;;;10.02;100.00;101225.00;4963832;28;20047;-57
2023/12/27 02:46:09;;;;;;;26.02;23.95;;;;;;;9.89;100.00;101216.06;4956636;28;20066;-57
2023/12/27 02:48:36;;;;;;;30.08;27.55;;;;;;;9.96;100.00;101232.91;4962580;28;20058;-57
2023/12/27 02:51:03;;;;;;;31.13;29.02;;;;;;;9.86;100.00;101226.06;4959596;28;20081;-58
2023/12/27 02:53:29;;;;;;;29.17;27.08;;;;;;;9.74;100.00;101235.53;4960039;28;20062;-57
2023/12/27 02:55:57;;;;;;;25.27;23.48;;;;;;;9.79;100.00;101235.78;4960757;28;20054;-57
2023/12/27 02:58:23;;;;;;;25.45;23.45;;;;;;;9.67;100.00;101237.28;4961867;28;20500;-57
2023/12/27 03:00:52;;;;;;;25.27;23.38;;;;;;;9.63;100.00;101244.78;4967430;28;20051;-57
2023/12/27 03:03:21;;;;;;;24.30;22.60;;;;;;;9.58;100.00;101239.22;4964163;28;20051;-58
2023/12/27 03:05:48;;;;;;;25.23;23.45;;;;;;;9.82;100.00;101238.03;4962190;28;20055;-57
2023/12/27 03:08:15;;;;;;;25.63;23.73;;;;;;;9.70;100.00;101239.56;4962518;28;20051;-57
2023/12/27 03:10:42;;;;;;;24.65;22.95;;;;;;;9.63;100.00;101238.66;4961931;28;20456;-57
2023/12/27 03:13:09;;;;;;;30.02;27.83;;;;;;;9.70;100.00;101250.16;4963713;28;20059;-57
2023/12/27 03:15:37;;;;;;;22.67;21.02;;;;;;;9.59;100.00;101246.19;4959439;28;20055;-57
2023/12/27 03:18:05;;;;;;;22.17;20.58;;;;;;;9.61;100.00;101245.97;4966048;28;20104;-57
2023/12/27 03:20:32;;;;;;;25.55;23.30;;;;;;;9.69;100.00;101247.72;4957125;28;20108;-57
2023/12/27 03:22:59;;;;;;;25.50;23.70;;;;;;;9.63;100.00;101254.56;4961301;28;20505;-57
2023/12/27 03:25:26;;;;;;;22.10;20.50;;;;;;;9.74;100.00;101256.75;4964885;28;20066;-57
2023/12/27 03:27:53;;;;;;;25.20;23.30;;;;;;;9.66;100.00;101269.31;4960647;28;20054;-57
2023/12/27 03:30:19;;;;;;;24.00;22.20;;;;;;;9.48;100.00;101275.81;4963540;28;20059;-57
2023/12/27 03:32:46;;;;;;;27.95;26.05;;;;;;;9.68;100.00;101254.81;4960614;28;20441;-56
2023/12/27 03:35:15;;;;;;;27.52;25.52;;;;;;;9.79;100.00;101258.81;4961787;28;20055;-57
2023/12/27 03:37:44;;;;;;;24.10;22.30;;;;;;;9.66;100.00;101261.34;4962862;28;20074;-57
2023/12/27 03:40:12;;;;;;;24.25;22.42;;;;;;;9.83;100.00;101266.25;4955406;28;20516;-57
2023/12/27 03:42:39;;;;;;;25.73;23.83;;;;;;;9.63;100.00;101273.97;4965670;28;20381;-57
2023/12/27 03:45:07;;;;;;;29.65;27.45;;;;;;;9.67;100.00;101278.91;4957017;28;20054;-57
2023/12/27 03:47:33;;;;;;;22.70;21.00;;;;;;;9.73;100.00;101262.22;4958955;28;20051;-57
2023/12/27 03:50:02;;;;;;;22.60;20.80;;;;;;;9.78;100.00;101268.63;4959225;28;20054;-57
2023/12/27 03:52:30;;;;;;;24.08;22.27;;;;;;;9.77;100.00;101271.44;4959410;28;20086;-57
2023/12/27 03:54:57;;;;;;;24.38;22.48;;;;;;;9.80;100.00;101271.94;4961027;28;20055;-57
2023/12/27 03:57:24;;;;;;;22.80;21.10;;;;;;;9.77;100.00;101280.25;4962434;28;20055;-57
2023/12/27 03:59:51;;;;;;;21.80;20.10;;;;;;;9.76;100.00;101297.16;4959250;28;20078;-57
2023/12/27 04:02:17;;;;;;;22.77;20.98;;;;;;;9.66;100.00;101285.22;4958533;28;20053;-58
2023/12/27 04:04:46;;;;;;;23.15;21.40;;;;;;;9.63;100.00;101284.56;4961327;28;20047;-57
2023/12/27 04:07:13;;;;;;;20.90;19.30;;;;;;;9.64;100.00;101290.69;4957503;28;20059;-57
2023/12/27 04:09:42;;;;;;;21.88;20.27;;;;;;;9.67;100.00;101286.84;4959264;28;20066;-57
2023/12/27 04:12:09;;;;;;;26.17;24.23;;;;;;;9.68;100.00;101296.44;4959434;28;20576;-57
2023/12/27 04:14:36;;;;;;;29.08;26.35;;;;;;;9.64;100.00;101304.78;4958036;28;20288;-57
2023/12/27 04:17:03;;;;;;;22.80;21.30;;;;;;;9.74;100.00;101314.25;4958130;28;20081;-57
2023/12/27 04:19:30;;;;;;;23.73;22.13;;;;;;;9.77;100.00;101321.84;4957161;28;20547;-57
2023/12/27 04:21:56;;;;;;;24.40;22.70;;;;;;;9.57;100.00;101314.47;4956768;28;20055;-57
2023/12/27 04:24:23;;;;;;;21.55;20.05;;;;;;;9.58;100.00;101316.13;4965000;28;20439;-57
2023/12/27 04:26:51;;;;;;;20.60;19.10;;;;;;;9.53;100.00;101326.47;4962504;28;20062;-57
2023/12/27 04:29:18;;;;;;;24.60;22.80;;;;;;;9.35;100.00;101313.59;4950953;28;20051;-57
2023/12/27 04:31:45;;;;;;;25.02;23.42;;;;;;;9.43;100.00;101331.22;4959800;28;20062;-57
2023/12/27 04:34:12;;;;;;;24.60;22.80;;;;;;;9.39;100.00;101330.78;4960145;28;20043;-57
2023/12/27 04:36:39;;;;;;;24.80;23.10;;;;;;;9.38;100.00;101338.91;4962352;28;20059;-57
2023/12/27 04:39:07;;;;;;;23.08;21.48;;;;;;;9.31;100.00;101338.81;4958451;28;20046;-57
2023/12/27 04:41:34;;;;;;;24.60;22.90;;;;;;;9.34;100.00;101348.22;4954588;28;20062;-57
2023/12/27 04:44:02;;;;;;;24.20;22.50;;;;;;;9.24;100.00;101355.63;4960284;28;20054;-57
2023/12/27 04:46:29;;;;;;;22.20;20.60;;;;;;;9.37;100.00;101355.81;4960256;28;20065;-57
2023/12/27 04:48:56;;;;;;;21.92;20.35;;;;;;;9.11;100.00;101361.56;4962044;28;20062;-57
2023/12/27 04:51:23;;;;;;;25.00;22.95;;;;;;;9.07;100.00;101370.84;4957613;28;20451;-57
2023/12/27 04:53:50;;;;;;;23.77;22.10;;;;;;;9.11;100.00;101380.13;4960659;28;20059;-57
2023/12/27 04:56:18;;;;;;;22.40;20.70;;;;;;;9.10;100.00;101378.44;4960563;28;20059;-58
2023/12/27 04:58:44;;;;;;;21.13;19.52;;;;;;;9.17;100.00;101380.22;4957970;28;20062;-57
2023/12/27 05:01:13;;;;;;;22.17;20.67;;;;;;;9.12;100.00;101387.88;4963367;28;20070;-57
2023/12/27 05:03:39;;;;;;;23.38;21.77;;;;;;;9.14;100.00;101390.34;4958764;28;20051;-57
2023/12/27 05:06:07;;;;;;;24.55;22.95;;;;;;;9.25;100.00;101402.31;4956777;28;20591;-57
2023/12/27 05:08:35;;;;;;;25.30;23.60;;;;;;;8.94;100.00;101414.69;4957754;28;20051;-57
2023/12/27 05:11:01;;;;;;;24.17;22.38;;;;;;;9.02;100.00;101413.00;4957045;28;20418;-57
2023/12/27 05:13:28;;;;;;;24.70;22.92;;;;;;;9.05;100.00;101409.97;4961149;28;20050;-57
2023/12/27 05:15:55;;;;;;;24.77;22.98;;;;;;;8.87;100.00;101395.22;4955792;28;20532;-57
2023/12/27 05:18:24;;;;;;;21.00;19.30;;;;;;;9.03;100.00;101404.03;4958331;28;20206;-57
2023/12/27 05:20:50;;;;;;;21.67;20.15;;;;;;;8.79;100.00;101408.50;4957692;28;20050;-57
2023/12/27 05:23:17;;;;;;;23.63;21.75;;;;;;;8.84;100.00;101408.00;4956661;28;20055;-57
2023/12/27 05:25:44;;;;;;;21.45;19.85;;;;;;;8.84;100.00;101413.28;4963829;28;20050;-57
2023/12/27 05:28:11;;;;;;;22.60;21.00;;;;;;;8.84;100.00;101414.09;4956601;28;20055;-57
2023/12/27 05:30:38;;;;;;;22.33;20.52;;;;;;;8.70;100.00;101417.53;4953819;28;20063;-57
2023/12/27 05:33:05;;;;;;;24.17;22.48;;;;;;;8.73;100.00;101427.75;4957080;28;20070;-62
2023/12/27 05:35:33;;;;;;;22.95;21.25;;;;;;;8.82;100.00;101428.53;4958492;28;20059;-63
2023/12/27 05:38:00;;;;;;;24.10;22.40;;;;;;;8.76;100.00;101432.69;4959541;28;20436;-63
2023/12/27 05:40:26;;;;;;;24.77;23.08;;;;;;;8.74;100.00;101447.94;4951318;28;20055;-57
2023/12/27 05:42:53;;;;;;;23.67;22.08;;;;;;;8.66;100.00;101448.84;4960171;28;20054;-57
2023/12/27 05:45:20;;;;;;;23.60;21.90;;;;;;;8.57;100.00;101467.59;4959847;28;20069;-57
2023/12/27 05:47:48;;;;;;;22.73;20.98;;;;;;;8.77;100.00;101463.47;4956988;28;20051;-57
2023/12/27 05:50:14;;;;;;;21.70;20.00;;;;;;;8.75;100.00;101475.28;4959616;28;20109;-57
2023/12/27 05:52:43;;;;;;;22.10;20.40;;;;;;;8.88;100.00;101462.25;4957299;28;20440;-57
2023/12/27 05:55:10;;;;;;;22.40;20.70;;;;;;;8.66;100.00;101471.84;4960051;28;20047;-56
2023/12/27 05:57:37;;;;;;;24.58;22.67;;;;;;;8.74;100.00;101465.66;4956629;28;20509;-57
2023/12/27 06:00:05;;;;;;;24.45;22.55;;;;;;;8.76;100.00;101474.25;4956843;28;20061;-57
2023/12/27 06:02:32;;;;;;;23.77;21.88;;;;;;;8.71;100.00;101478.28;4955261;28;20146;-57
2023/12/27 06:04:59;;;;;;;22.25;20.45;;;;;;;8.65;100.00;101481.63;4958298;28;20054;-57
2023/12/27 06:07:26;;;;;;;22.60;20.83;;;;;;;8.80;100.00;101481.66;4965413;28;20058;-57
2023/12/27 06:09:54;;;;;;;22.15;20.35;;;;;;;8.86;100.00;101485.44;4953043;28;20074;-57
2023/12/27 06:12:21;;;;;;;22.90;21.10;;;;;;;9.01;100.00;101485.50;4958132;28;20443;-57
2023/12/27 06:14:50;;;;;;;25.25;23.02;;;;;;;9.00;100.00;101492.63;4958527;28;20051;-57
2023/12/27 06:17:17;;;;;;;23.30;21.50;;;;;;;9.07;100.00;101504.19;4964347;28;20055;-57
2023/12/27 06:19:44;;;;;;;22.30;20.60;;;;;;;9.34;100.00;101510.75;4964050;28;20070;-57
2023/12/27 06:22:11;;;;;;;21.73;20.02;;;;;;;9.29;100.00;101522.91;4961742;28;20054;-59
2023/12/27 06:24:38;;;;;;;22.13;20.42;;;;;;;9.52;100.00;101520.22;4961937;28;20509;-57
2023/12/27 06:27:06;;;;;;;21.10;19.50;;;;;;;9.69;100.00;101510.31;4963169;28;20062;-57
2023/12/27 06:29:33;;;;;;;22.40;20.73;;;;;;;9.63;100.00;101515.31;4956151;28;20080;-57
2023/12/27 06:32:00;;;;;;;20.83;19.23;;;;;;;9.79;100.00;101509.03;4960188;28;20075;-58
2023/12/27 06:34:27;;;;;;;21.65;19.95;;;;;;;9.66;100.00;101508.03;4959893;28;20509;-57
2023/12/27 06:36:54;;;;;;;23.17;21.25;;;;;;;9.76;100.00;101519.19;4963018;28;20062;-57
2023/12/27 06:39:21;;;;;;;23.63;21.83;;;;;;;9.78;100.00;101525.16;4956372;28;20054;-57
2023/12/27 06:41:49;;;;;;;24.23;22.42;;;;;;;9.73;100.00;101522.19;4964886;28;20066;-57
2023/12/27 06:44:19;;;;;;;23.83;22.02;;;;;;;10.09;100.00;101515.19;4961376;28;20067;-57
2023/12/27 06:46:46;;;;;;;23.15;21.48;;;;;;;9.99;100.00;101527.91;4959058;28;20122;-57
2023/12/27 06:49:13;;;;;;;23.52;21.83;;;;;;;10.08;100.00;101539.25;4967328;28;20535;-63
2023/12/27 06:51:40;;;;;;;23.40;21.70;;;;;;;10.26;100.00;101544.22;4955872;28;20062;-58
2023/12/27 06:54:07;;;;;;;22.25;20.65;;;;;;;10.17;100.00;101547.97;4961529;28;20059;-57
2023/12/27 06:56:34;;;;;;;22.27;20.67;;;;;;;10.28;100.00;101558.13;4963381;28;20055;-58
2023/12/27 06:59:01;;;;;;;21.17;19.60;;;;;;;10.29;100.00;101557.97;4964689;28;20054;-57
2023/12/27 07:01:29;;;;;;;20.95;19.35;;;;;;;10.12;100.00;101567.09;4964333;28;20521;-57
2023/12/27 07:03:56;;;;;;;20.38;18.88;;;;;;;10.40;100.00;101561.97;4961294;28;20468;-57
2023/12/27 07:06:23;;;;;;;20.65;19.05;;;;;;;10.49;100.00;101571.50;4964906;28;20047;-57
2023/12/27 07:08:50;;;;;;;21.48;19.88;;;;;;;10.62;100.00;101567.38;4959688;28;20070;-57
2023/12/27 07:11:20;;;;;;;21.50;19.90;;;;;;;10.49;100.00;101565.38;4959705;28;20061;-57
2023/12/27 07:13:47;;;;;;;21.33;19.80;;;;;;;10.73;100.00;101578.34;4962182;28;20055;-57
2023/12/27 07:16:14;;;;;;;22.55;21.00;;;;;;;10.55;100.00;101572.59;4959897;28;20061;-57
2023/12/27 07:18:42;;;;;;;22.08;20.58;;;;;;;10.74;100.00;101590.63;4959198;28;20169;-58
2023/12/27 07:21:09;;;;;;;21.50;20.10;;;;;;;11.14;100.00;101587.63;4962625;28;20051;-57
2023/12/27 07:23:36;;;;;;;24.17;22.48;;;;;;;11.00;100.00;101589.28;4958505;28;20429;-57
2023/12/27 07:26:04;;;;;;;22.23;20.63;;;;;;;11.38;100.00;101579.28;4968855;28;20062;-56
2023/12/27 07:28:31;;;;;;;21.60;20.00;;;;;;;10.84;100.00;101585.03;4956842;28;20051;-57
2023/12/27 07:30:58;;;;;;;22.80;21.10;;;;;;;11.29;100.00;101588.38;4963114;28;20054;-56
2023/12/27 07:33:25;;;;;;;23.58;21.88;;;;;;;11.31;100.00;101596.97;4959136;28;20061;-57
2023/12/27 07:35:53;;;;;;;24.30;22.60;;;;;;;11.60;100.00;101605.88;4956674;28;20449;-57
2023/12/27 07:38:20;;;;;;;22.20;20.70;;;;;;;11.30;100.00;101605.16;4963889;28;20437;-56
2023/12/27 07:40:45;;;;;;;24.90;23.25;;;;;;;11.10;100.00;101607.59;4954737;28;20070;-57
2023/12/27 07:43:12;;;;;;;22.90;21.35;;;;;;;11.92;100.00;101607.16;4964088;28;20472;-57
2023/12/27 07:45:39;;;;;;;23.90;22.20;;;;;;;12.16;100.00;101619.22;4960545;28;20050;-58
2023/12/27 07:48:06;;;;;;;22.80;21.20;;;;;;;12.24;100.00;101616.44;4963934;28;20054;-57
2023/12/27 07:50:33;;;;;;;24.13;22.42;;;;;;;12.54;100.00;101621.53;4954101;28;20528;-56
2023/12/27 07:53:01;;;;;;;23.67;21.98;;;;;;;12.21;100.00;101627.47;4966259;28;20066;-57
2023/12/27 07:55:28;;;;;;;23.27;21.58;;;;;;;12.73;100.00;101630.63;4962679;28;20146;-57
2023/12/27 07:57:55;;;;;;;22.70;21.20;;;;;;;12.34;100.00;101642.72;4957746;28;20055;-57
2023/12/27 08:00:22;;;;;;;21.80;20.20;;;;;;;13.25;100.00;101640.72;4962470;28;20058;-57
2023/12/27 08:02:50;;;;;;;23.33;21.63;;;;;;;12.02;100.00;101639.63;4965523;28;20051;-56
2023/12/27 08:05:17;;;;;;;23.25;21.23;;;;;;;11.80;100.00;101653.94;4957349;28;20055;-56
2023/12/27 08:07:44;;;;;;;25.20;23.50;;;;;;;13.17;100.00;101658.72;4961699;28;20422;-57
2023/12/27 08:10:12;;;;;;;22.13;20.52;;;;;;;13.15;100.00;101660.75;4958941;28;20050;-57
2023/12/27 08:12:39;;;;;;;22.20;20.63;;;;;;;12.46;100.00;101664.31;4962140;28;20456;-57
2023/12/27 08:15:07;;;;;;;23.13;21.52;;;;;;;11.88;100.00;101654.66;4960081;28;20054;-57
2023/12/27 08:17:34;;;;;;;24.58;22.98;;;;;;;11.91;100.00;101651.59;4964646;28;20564;-57
2023/12/27 08:20:04;;;;;;;23.52;21.77;;;;;;;12.25;100.00;101662.53;4958609;28;20050;-57
2023/12/27 08:22:31;;;;;;;22.10;20.50;;;;;;;12.38;100.00;101658.13;4962488;28;20506;-57
2023/12/27 08:24:57;;;;;;;23.30;21.70;;;;;;;13.30;100.00;101669.47;4963667;28;20058;-57
2023/12/27 08:27:26;;;;;;;26.40;24.60;;;;;;;14.59;100.00;101671.81;4962401;28;20078;-58
2023/12/27 08:29:52;;;;;;;22.75;21.25;;;;;;;13.80;100.00;101685.16;4958957;28;20054;-58
2023/12/27 08:32:20;;;;;;;23.65;22.15;;;;;;;13.44;100.00;101689.81;4955805;28;20062;-57
2023/12/27 08:34:48;;;;;;;23.17;21.35;;;;;;;12.72;100.00;101685.78;4959646;28;20058;-57
2023/12/27 08:37:16;;;;;;;24.92;23.20;;;;;;;13.09;100.00;101683.72;4963505;28;20055;-56
2023/12/27 08:39:43;;;;;;;21.58;20.10;;;;;;;12.56;100.00;101673.59;4952622;28;20102;-57
2023/12/27 08:42:10;;;;;;;25.05;23.45;;;;;;;13.73;100.00;101683.31;4957070;28;20087;-57
2023/12/27 08:44:38;;;;;;;22.90;21.30;;;;;;;13.43;100.00;101682.00;4957322;28;20057;-57
2023/12/27 08:47:05;;;;;;;23.00;21.50;;;;;;;13.48;100.00;101698.25;4964369;28;20055;-57
2023/12/27 08:49:32;;;;;;;20.85;19.45;;;;;;;13.21;100.00;101684.78;4956841;28;20453;-57
2023/12/27 08:51:58;;;;;;;25.60;23.90;;;;;;;12.99;100.00;101701.94;4958896;28;20076;-57
2023/12/27 08:54:26;;;;;;;22.75;21.20;;;;;;;14.48;100.00;101699.13;4961885;28;20054;-56
2023/12/27 08:56:53;;;;;;;21.73;20.13;;;;;;;13.05;100.00;101695.81;4961296;28;20105;-57
2023/12/27 08:59:20;;;;;;;20.65;19.25;;;;;;;13.85;100.00;101699.56;4964153;28;20050;-57
2023/12/27 09:01:48;;;;;;;21.30;19.80;;;;;;;14.29;100.00;101694.66;4966163;28;20050;-57
2023/12/27 09:04:17;;;;;;;21.98;20.38;;;;;;;13.35;100.00;101700.88;4959131;28;20505;-57
2023/12/27 09:06:44;;;;;;;22.08;20.58;;;;;;;13.58;100.00;101698.69;4961668;28;20055;-57
2023/12/27 09:09:12;;;;;;;22.33;20.77;;;;;;;13.50;100.00;101698.88;4962074;28;20051;-57
2023/12/27 09:11:39;;;;;;;23.98;22.17;;;;;;;14.02;100.00;101696.50;4964103;28;20436;-57
2023/12/27 09:14:05;;;;;;;23.40;21.60;;;;;;;14.88;100.00;101683.84;4963757;28;20046;-57
2023/12/27 09:16:32;;;;;;;24.40;22.50;;;;;;;14.75;100.00;101686.56;4962347;28;20054;-57
2023/12/27 09:19:02;;;;;;;23.85;22.05;;;;;;;13.72;100.00;101686.19;4964765;28;20050;-57
2023/12/27 09:21:29;;;;;;;23.45;21.65;;;;;;;14.40;100.00;101680.63;4959587;28;20065;-57
2023/12/27 09:23:56;;;;;;;23.80;22.00;;;;;;;13.82;100.00;101681.25;4957153;28;20051;-57
2023/12/27 09:26:23;;;;;;;22.75;21.05;;;;;;;14.60;100.00;101686.00;4966012;28;20050;-57
2023/12/27 09:28:50;;;;;;;26.48;24.58;;;;;;;15.60;100.00;101682.91;4958814;28;20536;-57
2023/12/27 09:31:17;;;;;;;23.85;22.05;;;;;;;16.10;100.00;101685.69;4954818;28;20061;-58
2023/12/27 09:33:45;;;;;;;23.63;21.73;;;;;;;15.01;100.00;101687.53;4958083;28;20051;-57
2023/12/27 09:36:13;;;;;;;25.75;23.75;;;;;;;14.09;100.00;101699.97;4958086;28;20065;-57
2023/12/27 09:38:40;;;;;;;22.83;20.92;;;;;;;14.55;100.00;101685.78;4961869;28;20485;-57
2023/12/27 09:41:07;;;;;;;22.92;21.02;;;;;;;15.16;100.00;101673.88;4948362;28;20055;-56
2023/12/27 09:43:36;;;;;;;23.77;21.77;;;;;;;15.36;100.00;101671.91;4960523;28;20063;-56
2023/12/27 09:46:05;;;;;;;26.17;22.50;;;;;;;15.41;100.00;101684.66;4956824;28;20432;-56
2023/12/27 09:48:33;;;;;;;25.27;23.17;;;;;;;14.42;100.00;101678.59;4957441;28;20059;-56
2023/12/27 09:51:01;;;;;;;23.20;21.20;;;;;;;15.18;100.00;101685.19;4957309;28;20448;-56
2023/12/27 09:53:29;;;;;;;25.20;23.00;;;;;;;14.30;100.00;101683.75;4967242;28;20050;-57
2023/12/27 09:55:57;;;;;;;24.23;22.15;;;;;;;15.16;100.00;101685.41;4963626;28;20046;-57
2023/12/27 09:58:27;;;;;;;24.50;22.30;;;;;;;14.46;100.00;101679.00;4963733;28;20054;-57
2023/12/27 10:00:58;;;;;;;23.80;21.80;;;;;;;14.72;100.00;101683.50;4966421;28;20051;-57
2023/12/27 10:03:34;;;;;;;24.65;22.65;;;;;;;14.41;100.00;101693.00;4968654;28;20050;-57
2023/12/27 10:06:13;;;;;;;23.73;21.83;;;;;;;15.23;100.00;101686.19;4962954;28;20122;-57
2023/12/27 10:08:41;;;;;;;23.90;21.90;;;;;;;14.11;100.00;101681.91;4958593;28;20066;-56
2023/12/27 10:11:10;;;;;;;23.65;21.65;;;;;;;14.87;100.00;101670.69;4960129;28;20481;-57
2023/12/27 10:13:39;;;;;;;24.50;22.50;;;;;;;14.24;100.00;101673.88;4958286;28;20055;-57
2023/12/27 10:16:07;;;;;;;24.85;23.00;;;;;;;15.37;100.00;101673.56;4963939;28;20047;-57
2023/12/27 10:18:33;;;;;;;24.00;22.10;;;;;;;15.50;100.00;101673.50;4960364;28;20505;-57
2023/12/27 10:21:00;;;;;;;24.58;22.58;;;;;;;15.66;100.00;101674.81;4960495;28;20055;-57
2023/12/27 10:23:27;;;;;;;24.48;22.48;;;;;;;15.72;100.00;101678.53;4960421;28;20144;-57
2023/12/27 10:25:56;;;;;;;25.52;23.52;;;;;;;16.16;100.00;101677.56;4968699;28;20046;-57
2023/12/27 10:28:24;;;;;;;24.25;22.25;;;;;;;17.07;100.00;101689.44;4962067;28;20475;-57
2023/12/27 10:30:52;;;;;;;25.60;23.60;;;;;;;15.63;100.00;101691.31;4964722;28;20050;-57
2023/12/27 10:33:21;;;;;;;26.65;24.40;;;;;;;17.86;100.00;101694.78;4960094;28;20066;-57
2023/12/27 10:35:48;;;;;;;25.08;23.05;;;;;;;14.63;100.00;101683.72;4959276;28;20532;-57
2023/12/27 10:38:16;;;;;;;26.05;23.95;;;;;;;16.19;100.00;101674.47;4967329;28;20061;-57
2023/12/27 10:40:44;;;;;;;25.55;23.48;;;;;;;15.50;100.00;101676.16;4959761;28;20078;-57
2023/12/27 10:43:12;;;;;;;23.80;21.80;;;;;;;15.74;100.00;101673.78;4954592;28;20047;-57
2023/12/27 10:45:39;;;;;;;24.13;22.02;;;;;;;15.72;100.00;101676.66;4959953;28;20062;-58
2023/12/27 10:48:06;;;;;;;25.05;22.90;;;;;;;18.39;100.00;101671.56;4963058;28;20497;-57
2023/12/27 10:50:35;;;;;;;26.20;24.00;;;;;;;15.56;100.00;101679.84;4957244;28;20059;-56
2023/12/27 10:53:04;;;;;;;24.70;22.50;;;;;;;15.48;100.00;101674.72;4966247;28;20047;-57
2023/12/27 10:55:33;;;;;;;26.17;23.88;;;;;;;15.73;100.00;101678.34;4965618;28;20513;-57
2023/12/27 10:58:01;;;;;;;25.45;23.35;;;;;;;16.74;100.00;101667.53;4959849;28;20058;-57
2023/12/27 11:00:30;;;;;;;25.25;23.25;;;;;;;16.51;100.00;101655.56;4959003;28;20057;-57
2023/12/27 11:02:58;;;;;;;26.67;24.58;;;;;;;16.35;100.00;101651.63;4960131;28;20059;-63
2023/12/27 11:05:27;;;;;;;30.90;25.52;;;;;;;15.57;100.00;101660.06;4961641;28;20583;-62
2023/12/27 11:07:54;;;;;;;25.98;23.88;;;;;;;16.57;100.00;101660.06;4956572;28;20051;-57